Time;durP1;ratioP1;P1;durP2;ratioP2;P2;SDS_P1;SDS_P2;PMS_P1;PMS_P2;Temp;Humidity;BMP_temperature;BMP_pressure;BME280_temperature;BME280_humidity;BME280_pressure;Samples;Min_cycle;Max_cycle;Signal;HPM_P1;HPM_P2
2023/11/23 00:00:52;;;;;;;5.22;4.40;;;;;;;1.18;100.00;93880.09;2122124;27;20475;-79
2023/11/23 00:01:54;;;;;;;4.50;4.10;;;;;;;1.22;100.00;93883.59;2107704;28;20028;-79
2023/11/23 00:02:54;;;;;;;4.93;4.15;;;;;;;1.34;100.00;93874.88;2108792;28;20051;-80
2023/11/23 00:03:55;;;;;;;4.65;4.15;;;;;;;1.53;100.00;93863.66;2120104;27;20459;-78
2023/11/23 00:04:56;;;;;;;5.10;4.18;;;;;;;1.37;100.00;93866.28;2115945;28;20023;-79
2023/11/23 00:05:57;;;;;;;4.50;3.85;;;;;;;1.31;100.00;93864.25;2109782;28;20115;-80
2023/11/23 00:06:58;;;;;;;6.82;4.40;;;;;;;1.38;100.00;93874.97;2102445;28;20032;-80
2023/11/23 00:08:00;;;;;;;4.18;3.78;;;;;;;1.99;100.00;93874.53;2113341;28;20026;-81
2023/11/23 00:09:01;;;;;;;5.60;3.90;;;;;;;2.13;100.00;93882.00;2049079;27;20027;-79
2023/11/23 00:10:05;;;;;;;4.03;3.63;;;;;;;1.88;100.00;93879.53;2032115;27;20118;-78
2023/11/23 00:11:07;;;;;;;4.25;3.85;;;;;;;1.74;100.00;93877.34;2034329;27;20034;-80
2023/11/23 00:12:08;;;;;;;3.92;3.58;;;;;;;1.68;100.00;93883.22;2048910;27;20146;-78
2023/11/23 00:13:09;;;;;;;4.85;4.10;;;;;;;1.50;100.00;93883.56;2039119;28;21390;-79
2023/11/23 00:14:10;;;;;;;4.07;3.70;;;;;;;1.42;100.00;93886.34;2034123;28;20727;-79
2023/11/23 00:15:11;;;;;;;4.68;3.72;;;;;;;1.22;100.00;93891.50;2048254;28;20040;-79
2023/11/23 00:16:12;;;;;;;4.95;3.97;;;;;;;1.19;100.00;93897.44;2039741;28;20579;-78
2023/11/23 00:17:15;;;;;;;3.60;3.30;;;;;;;1.23;100.00;93900.19;2050876;28;20047;-79
2023/11/23 00:18:16;;;;;;;4.43;3.95;;;;;;;1.26;100.00;93902.88;2060255;28;20036;-79
2023/11/23 00:19:17;;;;;;;4.32;3.40;;;;;;;1.35;100.00;93910.63;2059086;28;20123;-79
2023/11/23 00:20:18;;;;;;;3.55;3.25;;;;;;;1.55;100.00;93911.53;2069514;28;20114;-79
2023/11/23 00:21:19;;;;;;;4.10;3.28;;;;;;;1.39;100.00;93916.00;2084502;27;21303;-78
2023/11/23 00:22:21;;;;;;;4.07;3.67;;;;;;;1.35;100.00;93917.75;2086510;28;20118;-79
2023/11/23 00:23:22;;;;;;;3.70;3.40;;;;;;;1.43;100.00;93908.94;2081726;28;20032;-80
2023/11/23 00:24:23;;;;;;;4.03;3.33;;;;;;;1.44;100.00;93908.59;2092620;28;20072;-78
2023/11/23 00:25:24;;;;;;;4.07;3.58;;;;;;;1.43;100.00;93901.03;2096272;28;20028;-78
2023/11/23 00:26:25;;;;;;;3.55;3.10;;;;;;;1.55;100.00;93902.84;2095856;28;20017;-80
2023/11/23 00:27:26;;;;;;;3.40;3.10;;;;;;;1.32;100.00;93903.41;2098210;28;20025;-79
2023/11/23 00:28:27;;;;;;;4.30;3.90;;;;;;;1.43;100.00;93904.44;2093348;28;20017;-80
2023/11/23 00:29:28;;;;;;;3.97;3.50;;;;;;;1.51;100.00;93905.41;2113531;28;20094;-80
2023/11/23 00:30:29;;;;;;;3.72;3.40;;;;;;;1.37;100.00;93907.69;2105919;28;20024;-79
2023/11/23 00:31:30;;;;;;;4.65;3.20;;;;;;;1.46;100.00;93903.00;2105773;28;20086;-79
2023/11/23 00:32:32;;;;;;;4.20;3.80;;;;;;;1.49;100.00;93903.09;2105077;28;20602;-79
2023/11/23 00:33:33;;;;;;;4.90;4.32;;;;;;;1.49;100.00;93903.09;2018093;28;20039;-80
2023/11/23 00:34:34;;;;;;;6.90;4.35;;;;;;;1.50;100.00;93901.22;2031452;28;20035;-78
2023/11/23 00:35:34;;;;;;;4.30;3.90;;;;;;;1.52;100.00;93899.00;2036688;28;20150;-80
2023/11/23 00:36:37;;;;;;;4.55;3.78;;;;;;;1.36;100.00;93901.66;2043652;28;23037;-80
2023/11/23 00:37:38;;;;;;;4.25;3.60;;;;;;;1.40;100.00;93891.19;2050209;28;20392;-79
2023/11/23 00:38:43;;;;;;;4.30;3.90;;;;;;;1.42;100.00;93892.38;2050557;28;20036;-79
2023/11/23 00:39:43;;;;;;;4.32;3.50;;;;;;;1.48;100.00;93890.25;2055517;28;20034;-79
2023/11/23 00:40:44;;;;;;;4.18;3.53;;;;;;;1.50;100.00;93877.53;2055937;28;20023;-79
2023/11/23 00:41:45;;;;;;;4.60;3.72;;;;;;;1.48;100.00;93882.34;2057404;28;20047;-80
2023/11/23 00:42:46;;;;;;;4.20;3.80;;;;;;;1.38;100.00;93883.63;2078402;28;20063;-78
2023/11/23 00:43:47;;;;;;;3.30;3.00;;;;;;;1.25;100.00;93882.16;2075543;28;20052;-80
2023/11/23 00:44:48;;;;;;;4.75;3.90;;;;;;;1.31;100.00;93883.44;2094391;28;20110;-80
2023/11/23 00:45:50;;;;;;;3.90;3.50;;;;;;;1.22;100.00;93890.72;2102716;28;20028;-80
2023/11/23 00:46:51;;;;;;;4.05;3.65;;;;;;;1.23;100.00;93898.31;2106240;28;20024;-78
2023/11/23 00:47:53;;;;;;;4.15;3.80;;;;;;;1.16;100.00;93895.47;2106548;28;20032;-80
2023/11/23 00:48:54;;;;;;;3.58;3.28;;;;;;;1.19;100.00;93901.94;2106619;28;20553;-81
2023/11/23 00:49:55;;;;;;;4.47;3.25;;;;;;;1.16;100.00;93890.22;2106836;28;20024;-79
2023/11/23 00:50:56;;;;;;;5.25;3.28;;;;;;;1.26;100.00;93887.06;2087594;28;20020;-79
2023/11/23 00:51:57;;;;;;;3.80;3.50;;;;;;;1.56;100.00;93885.94;2097966;28;20051;-79
2023/11/23 00:52:59;;;;;;;3.55;3.10;;;;;;;1.41;100.00;93888.22;2097779;28;20033;-79
2023/11/23 00:54:04;;;;;;;2.70;2.47;;;;;;;1.52;100.00;93897.13;2109040;28;20051;-77
2023/11/23 00:55:05;;;;;;;3.03;2.72;;;;;;;1.27;100.00;93898.38;2105992;28;20098;-79
2023/11/23 00:56:06;;;;;;;2.97;2.78;;;;;;;1.36;100.00;93899.00;2105768;28;20476;-79
2023/11/23 00:57:07;;;;;;;3.05;2.75;;;;;;;1.56;100.00;93899.88;2115146;28;20098;-79
2023/11/23 00:58:08;;;;;;;3.05;2.72;;;;;;;1.50;100.00;93902.00;2115121;28;20464;-79
2023/11/23 00:59:09;;;;;;;3.03;2.72;;;;;;;1.50;100.00;93903.88;2104917;28;20024;-78
2023/11/23 01:00:11;;;;;;;2.83;2.63;;;;;;;1.50;100.00;93896.72;2085499;28;20040;-79
2023/11/23 01:01:15;;;;;;;3.22;2.90;;;;;;;1.58;100.00;93913.47;2080956;28;20067;-79
2023/11/23 01:02:16;;;;;;;3.03;2.72;;;;;;;1.32;100.00;93911.31;2082002;28;20029;-80
2023/11/23 01:03:18;;;;;;;3.17;2.67;;;;;;;1.34;100.00;93909.09;2101873;28;20020;-79
2023/11/23 01:04:21;;;;;;;3.03;2.70;;;;;;;1.35;100.00;93905.34;2101842;28;20028;-79
2023/11/23 01:05:22;;;;;;;2.90;2.60;;;;;;;1.37;100.00;93905.81;2103846;28;20400;-80
2023/11/23 01:06:23;;;;;;;2.78;2.58;;;;;;;1.34;100.00;93895.16;2112010;28;20036;-78
2023/11/23 01:07:24;;;;;;;2.88;2.58;;;;;;;1.50;100.00;93898.59;2106476;28;20038;-78
2023/11/23 01:08:25;;;;;;;3.08;2.53;;;;;;;1.63;100.00;93896.66;2106256;28;20023;-78
2023/11/23 01:09:26;;;;;;;2.63;2.42;;;;;;;1.44;100.00;93892.78;2103192;28;20047;-79
2023/11/23 01:10:27;;;;;;;2.60;2.40;;;;;;;1.45;100.00;93889.09;2090548;28;20055;-79
2023/11/23 01:11:28;;;;;;;2.97;2.38;;;;;;;1.39;100.00;93882.50;2105109;28;20023;-80
2023/11/23 01:12:29;;;;;;;2.40;2.20;;;;;;;1.44;100.00;93884.13;2097739;28;20033;-80
2023/11/23 01:13:31;;;;;;;2.60;2.40;;;;;;;1.29;100.00;93884.88;2097919;28;20098;-81
2023/11/23 01:14:32;;;;;;;3.05;2.65;;;;;;;1.47;100.00;93881.59;2109481;28;20038;-79
2023/11/23 01:15:32;;;;;;;3.03;2.75;;;;;;;1.31;100.00;93872.13;2097823;28;20079;-78
2023/11/23 01:16:34;;;;;;;2.83;2.55;;;;;;;1.39;100.00;93890.41;2105481;28;20070;-79
2023/11/23 01:17:36;;;;;;;2.55;2.35;;;;;;;1.25;100.00;93880.28;2097888;28;20032;-79
2023/11/23 01:18:37;;;;;;;2.70;2.50;;;;;;;1.45;100.00;93880.41;2098259;28;20105;-78
2023/11/23 01:19:38;;;;;;;2.67;2.33;;;;;;;1.47;100.00;93881.59;2106293;28;20043;-77
2023/11/23 01:20:39;;;;;;;2.88;2.38;;;;;;;1.38;100.00;93888.88;2105949;28;20085;-78
2023/11/23 01:21:40;;;;;;;2.80;2.40;;;;;;;1.27;100.00;93879.94;2096276;28;20876;-80
2023/11/23 01:22:42;;;;;;;2.50;2.30;;;;;;;1.04;100.00;93876.34;2106071;28;20028;-80
2023/11/23 01:23:43;;;;;;;3.05;2.83;;;;;;;1.06;100.00;93882.81;2114846;28;20072;-78
2023/11/23 01:24:48;;;;;;;3.20;2.80;;;;;;;1.12;100.00;93889.34;2106091;28;20464;-79
2023/11/23 01:25:49;;;;;;;2.50;2.28;;;;;;;1.12;100.00;93888.59;2090058;28;20024;-79
2023/11/23 01:26:50;;;;;;;2.63;2.40;;;;;;;1.17;100.00;93890.97;2097510;28;20044;-80
2023/11/23 01:27:51;;;;;;;3.55;2.75;;;;;;;1.10;100.00;93890.78;2114198;28;20027;-79
2023/11/23 01:28:52;;;;;;;2.85;2.65;;;;;;;1.14;100.00;93892.44;2105398;28;20028;-79
2023/11/23 01:29:53;;;;;;;2.88;2.58;;;;;;;1.12;100.00;93894.63;2097872;28;20032;-78
2023/11/23 01:30:53;;;;;;;2.53;2.33;;;;;;;1.04;100.00;93894.75;2106091;28;20107;-78
2023/11/23 01:31:54;;;;;;;3.20;2.65;;;;;;;0.91;100.00;93889.53;2105649;28;20024;-78
2023/11/23 01:32:56;;;;;;;2.45;2.25;;;;;;;1.02;100.00;93892.47;2097178;28;20021;-80
2023/11/23 01:33:57;;;;;;;2.58;2.38;;;;;;;1.05;100.00;93877.84;2101295;28;20123;-78
2023/11/23 01:34:58;;;;;;;3.10;2.80;;;;;;;1.04;100.00;93882.38;2094720;28;20025;-80
2023/11/23 01:35:59;;;;;;;4.07;2.60;;;;;;;0.81;100.00;93871.59;2103842;28;20043;-81
2023/11/23 01:37:00;;;;;;;2.63;2.40;;;;;;;0.69;100.00;93875.03;2094989;28;20032;-80
2023/11/23 01:38:01;;;;;;;2.63;2.40;;;;;;;0.89;100.00;93873.34;2078049;28;20032;-81
2023/11/23 01:39:02;;;;;;;2.92;2.67;;;;;;;0.92;100.00;93877.94;2088743;28;20032;-80
2023/11/23 01:40:04;;;;;;;2.50;2.30;;;;;;;0.90;100.00;93866.19;2097642;28;20023;-79
2023/11/23 01:41:05;;;;;;;3.53;3.10;;;;;;;0.85;100.00;93861.94;2105337;28;20024;-80
2023/11/23 01:42:06;;;;;;;2.83;2.60;;;;;;;0.86;100.00;93863.47;2113656;28;20024;-79
2023/11/23 01:43:09;;;;;;;2.65;2.45;;;;;;;0.74;100.00;93864.28;2093903;28;20021;-79
2023/11/23 01:44:11;;;;;;;3.97;2.67;;;;;;;0.95;100.00;93860.69;2095742;28;20089;-80
2023/11/23 01:45:12;;;;;;;2.83;2.63;;;;;;;0.94;100.00;93859.16;2104520;28;20024;-79
2023/11/23 01:46:13;;;;;;;2.80;2.60;;;;;;;0.98;100.00;93866.06;2097697;28;20020;-81
2023/11/23 01:47:15;;;;;;;3.13;2.83;;;;;;;0.94;100.00;93875.72;2105637;28;20024;-79
2023/11/23 01:48:17;;;;;;;3.35;3.05;;;;;;;0.99;100.00;93872.84;2097379;28;20024;-80
2023/11/23 01:49:19;;;;;;;3.38;2.67;;;;;;;0.86;100.00;93868.72;2097786;28;20017;-78
2023/11/23 01:50:21;;;;;;;2.67;2.47;;;;;;;0.84;100.00;93864.91;2097756;28;20017;-79
2023/11/23 01:51:23;;;;;;;2.80;2.55;;;;;;;0.83;100.00;93863.38;2097635;28;20024;-80
2023/11/23 01:52:25;;;;;;;3.00;2.70;;;;;;;0.97;100.00;93872.44;2097026;28;20048;-80
2023/11/23 01:53:26;;;;;;;2.95;2.65;;;;;;;0.84;100.00;93870.94;2110699;28;20103;-80
2023/11/23 01:54:28;;;;;;;2.85;2.50;;;;;;;1.04;100.00;93869.19;2108359;28;20016;-78
2023/11/23 01:55:29;;;;;;;2.78;2.55;;;;;;;1.16;100.00;93878.91;2113261;28;20032;-79
2023/11/23 01:56:31;;;;;;;2.60;2.40;;;;;;;1.14;100.00;93876.63;2105704;28;20020;-81
2023/11/23 01:57:34;;;;;;;2.80;2.60;;;;;;;1.07;100.00;93873.03;2097528;28;20025;-79
2023/11/23 01:58:36;;;;;;;2.80;2.60;;;;;;;0.96;100.00;93867.47;2105847;28;20028;-81
2023/11/23 01:59:37;;;;;;;2.75;2.55;;;;;;;1.06;100.00;93879.41;2109606;28;20098;-80
2023/11/23 02:00:39;;;;;;;2.60;2.38;;;;;;;1.09;100.00;93882.13;2114909;28;20037;-80
2023/11/23 02:01:41;;;;;;;3.55;2.72;;;;;;;1.00;100.00;93879.63;2105881;28;20024;-80
2023/11/23 02:02:42;;;;;;;2.60;2.40;;;;;;;0.89;100.00;93878.59;2096394;28;20078;-78
2023/11/23 02:03:44;;;;;;;3.88;2.58;;;;;;;1.04;100.00;93871.84;2087917;28;20179;-79
2023/11/23 02:04:58;;;;;;;2.95;2.58;;;;;;;1.02;100.00;93876.69;2099782;28;20028;-78
2023/11/23 02:05:59;;;;;;;2.97;2.70;;;;;;;1.03;100.00;93875.56;2099123;28;20020;-80
2023/11/23 02:07:00;;;;;;;3.40;2.65;;;;;;;0.88;100.00;93882.34;2100371;28;20025;-81
2023/11/23 02:08:01;;;;;;;2.88;2.58;;;;;;;0.90;100.00;93877.50;2104753;28;20027;-81
2023/11/23 02:09:03;;;;;;;3.35;2.47;;;;;;;0.93;100.00;93878.69;2091763;28;20504;-80
2023/11/23 02:10:04;;;;;;;3.00;2.70;;;;;;;0.94;100.00;93873.09;2105980;28;20028;-80
2023/11/23 02:11:09;;;;;;;2.75;2.55;;;;;;;0.79;100.00;93871.19;2116285;27;20023;-79
2023/11/23 02:12:11;;;;;;;3.75;2.50;;;;;;;1.02;100.00;93875.91;2099292;28;20052;-81
2023/11/23 02:13:12;;;;;;;2.72;2.50;;;;;;;0.92;100.00;93870.03;2093629;28;20024;-79
2023/11/23 02:14:13;;;;;;;2.53;2.33;;;;;;;0.90;100.00;93871.47;2093521;28;20028;-80
2023/11/23 02:15:14;;;;;;;2.97;2.78;;;;;;;1.05;100.00;93862.84;2088560;28;20024;-78
2023/11/23 02:16:15;;;;;;;3.70;2.53;;;;;;;1.10;100.00;93869.72;2097558;28;20028;-81
2023/11/23 02:17:20;;;;;;;2.90;2.50;;;;;;;0.97;100.00;93859.25;2096556;28;20535;-79
2023/11/23 02:18:21;;;;;;;3.40;2.70;;;;;;;0.86;100.00;93857.44;2097991;28;20082;-81
2023/11/23 02:19:22;;;;;;;3.17;2.67;;;;;;;0.77;100.00;93852.31;2105781;28;20407;-79
2023/11/23 02:20:23;;;;;;;3.13;2.60;;;;;;;0.83;100.00;93858.09;2105782;28;20102;-80
2023/11/23 02:21:24;;;;;;;3.00;2.70;;;;;;;0.91;100.00;93855.31;2105462;28;20073;-78
2023/11/23 02:22:26;;;;;;;2.63;2.40;;;;;;;0.72;100.00;93860.47;2104091;28;20101;-79
2023/11/23 02:23:27;;;;;;;2.92;2.72;;;;;;;0.64;100.00;93858.72;2091535;28;20546;-78
2023/11/23 02:24:28;;;;;;;2.50;2.30;;;;;;;0.61;100.00;93859.38;2112137;28;20047;-80
2023/11/23 02:25:29;;;;;;;2.75;2.55;;;;;;;0.73;100.00;93862.00;2121038;27;20448;-81
2023/11/23 02:26:31;;;;;;;2.85;2.58;;;;;;;0.70;100.00;93860.00;2114003;28;20024;-79
2023/11/23 02:27:36;;;;;;;3.00;2.70;;;;;;;0.85;100.00;93861.94;2107025;28;20024;-80
2023/11/23 02:28:37;;;;;;;2.80;2.60;;;;;;;0.80;100.00;93862.19;2116396;27;20083;-80
2023/11/23 02:29:39;;;;;;;3.13;2.72;;;;;;;0.80;100.00;93874.59;2114166;28;20520;-81
2023/11/23 02:30:40;;;;;;;3.50;2.83;;;;;;;0.73;100.00;93872.50;2105924;28;20027;-79
2023/11/23 02:31:42;;;;;;;2.97;2.67;;;;;;;0.73;100.00;93869.88;2114202;28;20051;-80
2023/11/23 02:32:45;;;;;;;2.75;2.55;;;;;;;0.67;100.00;93863.34;2113370;28;20752;-79
2023/11/23 02:33:46;;;;;;;3.40;3.10;;;;;;;0.51;100.00;93868.53;2110708;28;20084;-78
2023/11/23 02:34:47;;;;;;;4.55;2.40;;;;;;;0.71;100.00;93864.19;2102537;28;20105;-79
2023/11/23 02:35:48;;;;;;;3.35;3.05;;;;;;;0.60;100.00;93858.63;2102427;28;20075;-79
2023/11/23 02:36:49;;;;;;;2.85;2.63;;;;;;;0.48;100.00;93851.56;2111905;28;20400;-79
2023/11/23 02:37:50;;;;;;;3.08;2.78;;;;;;;0.43;100.00;93845.75;2120936;27;20056;-78
2023/11/23 02:38:51;;;;;;;3.42;3.00;;;;;;;0.62;100.00;93842.53;2113192;28;20030;-80
2023/11/23 02:39:52;;;;;;;3.08;2.70;;;;;;;0.68;100.00;93846.44;2104729;28;20028;-80
2023/11/23 02:40:53;;;;;;;2.88;2.55;;;;;;;0.70;100.00;93849.50;2103665;28;20024;-81
2023/11/23 02:41:55;;;;;;;3.05;2.85;;;;;;;0.72;100.00;93848.06;2119608;28;20038;-78
2023/11/23 02:42:56;;;;;;;3.55;2.90;;;;;;;0.72;100.00;93850.69;2111554;28;20098;-81
2023/11/23 02:43:57;;;;;;;3.40;2.70;;;;;;;0.93;100.00;93847.13;2107471;28;20023;-81
2023/11/23 02:44:58;;;;;;;3.42;2.90;;;;;;;0.82;100.00;93844.19;2113089;28;20103;-78
2023/11/23 02:45:59;;;;;;;2.90;2.65;;;;;;;0.67;100.00;93842.28;2114171;28;20027;-81
2023/11/23 02:47:00;;;;;;;3.17;2.88;;;;;;;0.37;100.00;93847.09;2103013;28;20027;-80
2023/11/23 02:48:03;;;;;;;3.25;2.92;;;;;;;0.35;100.00;93852.69;2104820;28;20122;-80
2023/11/23 02:49:05;;;;;;;2.65;2.45;;;;;;;0.54;100.00;93846.06;2077823;28;20032;-80
2023/11/23 02:50:06;;;;;;;4.30;2.80;;;;;;;0.60;100.00;93856.00;2012601;28;20028;-80
2023/11/23 02:51:07;;;;;;;3.15;2.85;;;;;;;0.55;100.00;93847.59;2022642;28;20142;-79
2023/11/23 02:52:08;;;;;;;2.97;2.65;;;;;;;0.58;100.00;93846.94;2040086;28;20048;-80
2023/11/23 02:53:27;;;;;;;2.60;2.40;;;;;;;0.47;100.00;93847.38;2047008;28;20036;-78
2023/11/23 02:54:28;;;;;;;3.25;2.63;;;;;;;0.50;100.00;93835.44;2043662;28;20028;-80
2023/11/23 02:55:30;;;;;;;2.90;2.65;;;;;;;0.66;100.00;93841.53;2053469;28;20035;-78
2023/11/23 02:56:32;;;;;;;2.78;2.58;;;;;;;0.56;100.00;93843.84;2045027;28;20089;-80
2023/11/23 02:57:33;;;;;;;6.47;3.00;;;;;;;0.47;100.00;93844.75;2054641;27;22054;-80
2023/11/23 02:58:34;;;;;;;3.28;2.97;;;;;;;0.58;100.00;93839.03;2073857;28;20031;-78
2023/11/23 02:59:34;;;;;;;3.38;3.08;;;;;;;0.57;100.00;93845.38;2080548;28;20089;-78
2023/11/23 03:00:35;;;;;;;3.30;3.00;;;;;;;0.77;100.00;93852.31;2094494;27;20643;-80
2023/11/23 03:01:36;;;;;;;4.13;2.65;;;;;;;0.71;100.00;93848.41;2085958;28;20024;-80
2023/11/23 03:02:37;;;;;;;3.38;2.78;;;;;;;0.78;100.00;93850.47;2098005;28;20027;-81
2023/11/23 03:03:39;;;;;;;4.63;2.90;;;;;;;0.73;100.00;93856.72;2113397;28;20365;-80
2023/11/23 03:04:40;;;;;;;3.75;2.92;;;;;;;0.84;100.00;93862.28;2103317;28;20027;-80
2023/11/23 03:05:41;;;;;;;2.90;2.70;;;;;;;0.71;100.00;93861.56;2109251;28;20039;-78
2023/11/23 03:06:41;;;;;;;3.30;3.00;;;;;;;0.59;100.00;93861.59;2122871;28;20427;-79
2023/11/23 03:07:42;;;;;;;3.25;2.95;;;;;;;0.36;100.00;93867.38;2123038;28;20031;-79
2023/11/23 03:08:44;;;;;;;3.38;3.08;;;;;;;0.55;100.00;93850.97;2123014;28;20053;-79
2023/11/23 03:09:45;;;;;;;2.92;2.72;;;;;;;0.46;100.00;93853.75;2113855;28;20039;-81
2023/11/23 03:11:14;;;;;;;2.88;2.58;;;;;;;0.43;100.00;93853.63;2113313;28;20048;-79
2023/11/23 03:12:16;;;;;;;3.17;2.70;;;;;;;0.38;100.00;93853.88;2114088;28;20028;-80
2023/11/23 03:13:18;;;;;;;2.97;2.70;;;;;;;0.36;100.00;93853.47;2094900;28;20028;-80
2023/11/23 03:14:20;;;;;;;3.20;2.90;;;;;;;0.42;100.00;93850.25;2112772;28;20031;-78
2023/11/23 03:15:21;;;;;;;3.78;2.90;;;;;;;0.27;100.00;93850.94;2101369;28;20027;-80
2023/11/23 03:16:24;;;;;;;4.05;2.97;;;;;;;0.26;100.00;93854.66;2018757;28;20031;-80
2023/11/23 03:17:26;;;;;;;3.25;2.78;;;;;;;0.27;100.00;93858.84;2019279;28;21838;-79
2023/11/23 03:18:27;;;;;;;3.30;2.67;;;;;;;0.35;100.00;93855.31;2029143;27;20023;-81
2023/11/23 03:19:28;;;;;;;4.07;3.25;;;;;;;0.32;100.00;93855.97;2033254;27;20126;-78
2023/11/23 03:20:29;;;;;;;3.17;2.88;;;;;;;0.45;100.00;93861.97;2037054;27;20101;-80
2023/11/23 03:21:30;;;;;;;3.50;3.00;;;;;;;0.38;100.00;93859.91;2041406;27;20043;-80
2023/11/23 03:22:32;;;;;;;3.47;3.17;;;;;;;0.26;100.00;93859.91;2049743;27;20028;-81
2023/11/23 03:23:33;;;;;;;3.00;2.70;;;;;;;0.13;100.00;93851.31;2042985;28;20034;-78
2023/11/23 03:24:34;;;;;;;5.35;3.10;;;;;;;0.00;100.00;93855.06;2035397;28;23253;-81
2023/11/23 03:25:35;;;;;;;2.55;2.35;;;;;;;0.07;100.00;93852.63;2047263;28;20115;-79
2023/11/23 03:26:36;;;;;;;3.20;2.90;;;;;;;0.02;100.00;93847.59;2055352;28;20024;-81
2023/11/23 03:27:38;;;;;;;3.35;2.60;;;;;;;0.09;100.00;93853.06;2077118;27;20024;-78
2023/11/23 03:28:39;;;;;;;3.78;2.90;;;;;;;0.06;100.00;93843.22;2071286;28;21355;-80
2023/11/23 03:29:40;;;;;;;3.13;2.83;;;;;;;0.01;100.00;93846.06;2063454;28;20128;-81
2023/11/23 03:30:41;;;;;;;3.33;2.60;;;;;;;0.05;100.00;93838.28;2077382;28;20855;-79
2023/11/23 03:31:49;;;;;;;3.33;2.40;;;;;;;0.31;100.00;93845.78;2099455;28;22149;-80
2023/11/23 03:32:50;;;;;;;3.58;2.78;;;;;;;0.29;100.00;93843.50;2104714;28;20024;-78
2023/11/23 03:33:51;;;;;;;3.22;2.92;;;;;;;0.35;100.00;93842.19;2104878;28;20106;-79
2023/11/23 03:34:52;;;;;;;3.05;2.75;;;;;;;0.36;100.00;93843.69;2094434;28;20029;-78
2023/11/23 03:35:53;;;;;;;2.60;2.40;;;;;;;0.43;100.00;93841.25;2107237;28;20146;-80
2023/11/23 03:36:55;;;;;;;2.90;2.58;;;;;;;0.37;100.00;93839.19;2116002;28;20043;-81
2023/11/23 03:37:56;;;;;;;3.63;2.58;;;;;;;0.44;100.00;93849.91;2116118;28;20110;-79
2023/11/23 03:38:57;;;;;;;3.63;2.88;;;;;;;0.39;100.00;93850.91;2115981;28;20024;-79
2023/11/23 03:39:58;;;;;;;2.78;2.58;;;;;;;0.33;100.00;93852.25;2106774;28;20024;-81
2023/11/23 03:41:00;;;;;;;3.05;2.78;;;;;;;0.21;100.00;93854.88;2098075;28;20017;-80
2023/11/23 03:42:01;;;;;;;3.00;2.70;;;;;;;0.15;100.00;93853.59;2098926;28;20024;-80
2023/11/23 03:43:02;;;;;;;2.78;2.53;;;;;;;0.26;100.00;93854.66;2098400;28;20052;-80
2023/11/23 03:44:03;;;;;;;4.45;2.60;;;;;;;0.06;100.00;93845.84;2102824;28;20103;-79
2023/11/23 03:45:05;;;;;;;3.53;2.50;;;;;;;-0.20;100.00;93848.81;2115272;28;20039;-78
2023/11/23 03:46:06;;;;;;;2.90;2.40;;;;;;;-0.17;100.00;93857.91;2114818;27;20047;-80
2023/11/23 03:47:07;;;;;;;2.83;2.63;;;;;;;-0.08;100.00;93855.94;2092347;28;20124;-80
2023/11/23 03:48:08;;;;;;;4.38;2.70;;;;;;;-0.12;100.00;93855.81;2075956;28;20543;-79
2023/11/23 03:49:09;;;;;;;3.42;2.70;;;;;;;-0.15;100.00;93869.59;2098488;28;20033;-79
2023/11/23 03:50:10;;;;;;;3.92;3.03;;;;;;;-0.14;100.00;93867.75;2103283;28;20030;-80
2023/11/23 03:51:14;;;;;;;2.88;2.42;;;;;;;-0.06;100.00;93867.63;2099841;28;20043;-79
2023/11/23 03:52:19;;;;;;;2.63;2.42;;;;;;;-0.04;100.00;93865.44;2103002;28;20028;-78
2023/11/23 03:53:20;;;;;;;2.72;2.53;;;;;;;-0.15;100.00;93866.97;2114147;28;20015;-80
2023/11/23 03:54:21;;;;;;;2.80;2.50;;;;;;;-0.11;100.00;93870.47;2106900;28;20058;-78
2023/11/23 03:55:25;;;;;;;2.97;2.58;;;;;;;-0.28;100.00;93866.22;2098543;28;20484;-79
2023/11/23 03:56:26;;;;;;;2.42;2.22;;;;;;;-0.19;100.00;93875.84;2096883;28;20105;-80
2023/11/23 03:57:27;;;;;;;3.00;2.70;;;;;;;-0.13;100.00;93871.91;2097529;28;20097;-81
2023/11/23 03:58:27;;;;;;;3.05;2.72;;;;;;;-0.26;100.00;93873.78;2101925;28;20020;-78
2023/11/23 03:59:29;;;;;;;2.83;2.30;;;;;;;-0.15;100.00;93869.59;2106972;28;20055;-81
2023/11/23 04:00:31;;;;;;;2.60;2.40;;;;;;;-0.24;100.00;93876.06;2102358;28;20028;-80
2023/11/23 04:01:32;;;;;;;3.15;2.88;;;;;;;-0.05;100.00;93879.66;2105916;28;20534;-79
2023/11/23 04:02:34;;;;;;;2.72;2.53;;;;;;;-0.11;100.00;93874.97;2089931;28;20029;-78
2023/11/23 04:03:35;;;;;;;3.08;2.70;;;;;;;-0.27;100.00;93877.47;2090295;28;20033;-80
2023/11/23 04:04:38;;;;;;;3.17;2.50;;;;;;;-0.39;100.00;93869.63;2107391;28;20365;-79
2023/11/23 04:05:39;;;;;;;3.45;3.15;;;;;;;-0.43;100.00;93864.25;2110207;28;20047;-81
2023/11/23 04:06:44;;;;;;;3.65;3.13;;;;;;;-0.34;100.00;93864.91;2108970;28;20461;-80
2023/11/23 04:07:48;;;;;;;3.17;2.85;;;;;;;-0.26;100.00;93866.66;2092267;28;20051;-79
2023/11/23 04:08:49;;;;;;;3.42;2.78;;;;;;;-0.30;100.00;93871.03;2098949;28;20032;-80
2023/11/23 04:09:50;;;;;;;3.47;3.17;;;;;;;-0.34;100.00;93867.53;2106645;28;20107;-78
2023/11/23 04:10:51;;;;;;;3.38;3.00;;;;;;;-0.34;100.00;93867.53;2104557;28;20020;-80
2023/11/23 04:11:53;;;;;;;3.33;2.97;;;;;;;-0.39;100.00;93867.00;2106773;28;20077;-79
2023/11/23 04:13:13;;;;;;;3.38;3.08;;;;;;;-0.35;100.00;93866.00;2115147;28;20092;-80
2023/11/23 04:14:14;;;;;;;;;;;;;;;-0.24;100.00;93868.94;2101036;28;20020;-79
2023/11/23 04:15:15;;;;;;;2.75;2.47;;;;;;;-0.30;100.00;93873.66;2098265;28;19909;-80
2023/11/23 04:16:16;;;;;;;2.72;2.53;;;;;;;-0.46;100.00;93864.13;2103775;28;20559;-78
2023/11/23 04:17:17;;;;;;;3.10;2.80;;;;;;;-0.39;100.00;93865.13;2098441;28;20829;-80
2023/11/23 04:18:18;;;;;;;3.30;2.65;;;;;;;-0.51;100.00;93865.88;2098525;28;20060;-80
2023/11/23 04:19:19;;;;;;;4.63;2.53;;;;;;;-0.54;100.00;93863.91;2089853;28;20032;-81
2023/11/23 04:20:20;;;;;;;5.68;2.63;;;;;;;-0.51;100.00;93868.50;2082460;28;20021;-80
2023/11/23 04:21:21;;;;;;;4.32;2.80;;;;;;;-0.31;100.00;93868.72;2106494;28;20020;-80
2023/11/23 04:22:22;;;;;;;2.92;2.60;;;;;;;-0.32;100.00;93875.84;2104546;28;20027;-80
2023/11/23 04:23:23;;;;;;;2.70;2.50;;;;;;;-0.26;100.00;93869.28;2106924;28;20020;-79
2023/11/23 04:24:24;;;;;;;4.07;2.70;;;;;;;-0.22;100.00;93866.00;2106645;28;20093;-81
2023/11/23 04:25:25;;;;;;;5.03;2.80;;;;;;;-0.29;100.00;93861.28;2106721;28;20027;-79
2023/11/23 04:26:26;;;;;;;3.63;2.47;;;;;;;-0.31;100.00;93871.34;2104931;28;20046;-79
2023/11/23 04:27:27;;;;;;;3.58;2.80;;;;;;;-0.28;100.00;93865.44;2103907;28;20074;-80
2023/11/23 04:28:28;;;;;;;3.13;2.50;;;;;;;-0.32;100.00;93872.44;2110895;28;20030;-80
2023/11/23 04:29:29;;;;;;;2.88;2.58;;;;;;;-0.33;100.00;93874.31;2104210;28;20067;-81
2023/11/23 04:30:30;;;;;;;3.22;2.60;;;;;;;-0.36;100.00;93867.06;2103727;28;20812;-78
2023/11/23 04:31:31;;;;;;;2.97;2.60;;;;;;;-0.29;100.00;93869.19;2102626;28;20020;-78
2023/11/23 04:32:33;;;;;;;2.47;2.28;;;;;;;-0.34;100.00;93872.78;2103801;28;20401;-80
2023/11/23 04:33:34;;;;;;;3.10;2.80;;;;;;;-0.30;100.00;93870.28;2098034;28;20081;-80
2023/11/23 04:34:34;;;;;;;4.32;2.70;;;;;;;-0.34;100.00;93870.16;2103386;28;20117;-80
2023/11/23 04:35:36;;;;;;;2.75;2.47;;;;;;;-0.42;100.00;93860.53;2115057;28;20032;-80
2023/11/23 04:36:56;;;;;;;3.22;2.83;;;;;;;-0.49;100.00;93870.03;2107707;28;20047;-81
2023/11/23 04:37:57;;;;;;;3.13;2.83;;;;;;;-0.38;100.00;93871.91;2115397;28;20437;-78
2023/11/23 04:38:58;;;;;;;3.97;2.60;;;;;;;-0.52;100.00;93861.72;2115516;28;20490;-79
2023/11/23 04:39:59;;;;;;;3.65;2.75;;;;;;;-0.33;100.00;93868.28;2098143;28;20727;-82
2023/11/23 04:41:00;;;;;;;4.85;2.53;;;;;;;-0.30;100.00;93873.66;2095465;28;20105;-80
2023/11/23 04:42:02;;;;;;;2.55;2.35;;;;;;;-0.30;100.00;93862.41;2094142;28;20025;-81
2023/11/23 04:43:03;;;;;;;3.00;2.70;;;;;;;-0.30;100.00;93860.53;2098191;28;20025;-82
2023/11/23 04:44:04;;;;;;;2.95;2.65;;;;;;;-0.41;100.00;93866.53;2113859;28;20020;-79
2023/11/23 04:45:05;;;;;;;3.88;2.38;;;;;;;-0.42;100.00;93865.78;2104578;28;20448;-79
2023/11/23 04:46:06;;;;;;;4.50;2.42;;;;;;;-0.46;100.00;93867.53;2102293;28;20469;-81
2023/11/23 04:47:08;;;;;;;2.80;2.20;;;;;;;-0.40;100.00;93865.44;2103193;28;20024;-78
2023/11/23 04:48:09;;;;;;;2.95;2.45;;;;;;;-0.23;100.00;93859.22;2090240;28;20381;-78
2023/11/23 04:49:10;;;;;;;2.63;2.42;;;;;;;-0.27;100.00;93856.47;2100572;28;20393;-79
2023/11/23 04:50:11;;;;;;;2.58;2.38;;;;;;;-0.24;100.00;93866.31;2115460;28;20106;-80